Time;durP1;ratioP1;P1;durP2;ratioP2;P2;SDS_P1;SDS_P2;PMS_P1;PMS_P2;Temp;Humidity;BMP_temperature;BMP_pressure;BME280_temperature;BME280_humidity;BME280_pressure;Samples;Min_cycle;Max_cycle;Signal;HPM_P1;HPM_P2
2023/04/06 00:00:48;;;;;;;1.20;1.20;;;3.40;99.90;;;;;;4989630;28;20269;-63
2023/04/06 00:03:15;;;;;;;1.30;1.30;;;3.40;99.90;;;;;;4992248;28;20615;-63
2023/04/06 00:05:42;;;;;;;1.25;1.25;;;3.40;99.90;;;;;;4994007;28;20268;-63
2023/04/06 00:08:10;;;;;;;1.23;1.23;;;3.40;99.90;;;;;;4994244;28;20269;-64
2023/04/06 00:10:37;;;;;;;1.40;1.30;;;3.30;99.90;;;;;;4994431;28;20206;-64
2023/04/06 00:13:04;;;;;;;1.17;1.17;;;3.40;99.90;;;;;;4993280;28;20670;-62
2023/04/06 00:15:31;;;;;;;1.63;1.52;;;3.30;99.90;;;;;;5003806;28;20210;-63
2023/04/06 00:17:59;;;;;;;1.20;1.20;;;3.40;99.90;;;;;;5017631;28;20218;-63
2023/04/06 00:20:26;;;;;;;1.38;1.33;;;3.40;99.90;;;;;;5006097;28;20268;-64
2023/04/06 00:22:53;;;;;;;1.23;1.23;;;3.40;99.90;;;;;;4993033;28;20216;-63
2023/04/06 00:25:20;;;;;;;1.40;1.30;;;3.50;99.90;;;;;;4990814;28;20217;-64
2023/04/06 00:27:47;;;;;;;1.15;1.15;;;3.40;99.90;;;;;;4990622;28;20226;-64
2023/04/06 00:30:14;;;;;;;1.25;1.25;;;3.40;99.90;;;;;;4989949;28;20213;-63
2023/04/06 00:32:41;;;;;;;1.38;1.27;;;3.40;99.90;;;;;;4990113;28;20277;-63
2023/04/06 00:35:10;;;;;;;1.25;1.20;;;3.40;99.90;;;;;;4991293;28;20237;-64
2023/04/06 00:37:37;;;;;;;1.38;1.30;;;3.30;99.90;;;;;;4993794;28;20312;-64
2023/04/06 00:40:05;;;;;;;1.20;1.20;;;3.30;99.90;;;;;;4993119;28;20703;-63
2023/04/06 00:42:32;;;;;;;1.52;1.45;;;3.20;99.90;;;;;;4993129;28;20229;-62
2023/04/06 00:45:01;;;;;;;1.08;1.08;;;3.20;99.90;;;;;;4992402;28;20229;-63
2023/04/06 00:47:28;;;;;;;1.10;1.10;;;3.00;99.90;;;;;;4993399;28;20230;-63
2023/04/06 00:49:55;;;;;;;1.10;1.10;;;2.90;99.90;;;;;;4993962;28;20576;-63
2023/04/06 00:52:24;;;;;;;1.10;1.10;;;2.90;99.90;;;;;;4992978;28;20285;-64
2023/04/06 00:54:51;;;;;;;1.50;1.40;;;2.90;99.90;;;;;;4991031;28;20217;-63
2023/04/06 00:57:19;;;;;;;1.10;1.10;;;2.90;99.90;;;;;;4993476;28;20226;-63
2023/04/06 00:59:46;;;;;;;1.30;1.20;;;2.80;99.90;;;;;;5000968;28;20206;-63
2023/04/06 01:02:13;;;;;;;1.20;1.20;;;2.80;99.90;;;;;;4999943;28;20213;-63
2023/04/06 01:04:40;;;;;;;1.20;1.20;;;2.70;99.90;;;;;;5001536;28;20303;-62
2023/04/06 01:07:07;;;;;;;1.17;1.17;;;2.70;99.90;;;;;;5001209;28;20252;-63
2023/04/06 01:09:35;;;;;;;1.10;1.10;;;2.70;99.90;;;;;;4999947;28;20285;-63
2023/04/06 01:12:03;;;;;;;1.27;1.27;;;2.70;99.90;;;;;;4991681;28;20210;-65
2023/04/06 01:14:30;;;;;;;1.23;1.10;;;2.70;99.90;;;;;;4993249;28;20213;-63
2023/04/06 01:16:59;;;;;;;1.58;1.48;;;2.60;99.90;;;;;;4993169;28;20713;-64
2023/04/06 01:19:26;;;;;;;1.25;1.25;;;2.60;99.90;;;;;;4993442;28;20232;-63
2023/04/06 01:21:53;;;;;;;1.30;1.30;;;2.60;99.90;;;;;;4993258;28;20264;-62
2023/04/06 01:24:22;;;;;;;1.30;1.30;;;2.50;99.90;;;;;;4993414;28;20206;-64
2023/04/06 01:26:49;;;;;;;1.05;1.05;;;2.50;99.90;;;;;;4993056;28;20249;-63
2023/04/06 01:29:16;;;;;;;1.20;1.20;;;2.50;99.90;;;;;;4993219;28;20213;-63
2023/04/06 01:31:43;;;;;;;1.30;1.30;;;2.40;99.90;;;;;;4994163;28;20271;-63
2023/04/06 01:34:10;;;;;;;1.52;1.20;;;2.40;99.90;;;;;;4996567;28;20265;-64
2023/04/06 01:36:37;;;;;;;1.20;1.20;;;2.40;99.90;;;;;;4995518;28;20230;-62
2023/04/06 01:39:04;;;;;;;1.25;1.25;;;2.30;99.90;;;;;;4995516;28;20237;-63
2023/04/06 01:41:32;;;;;;;1.30;1.30;;;2.40;99.90;;;;;;4994335;28;20202;-64
2023/04/06 01:43:59;;;;;;;1.40;1.30;;;2.40;99.90;;;;;;4992579;28;20280;-63
2023/04/06 01:46:26;;;;;;;1.20;1.20;;;2.50;99.90;;;;;;4992200;28;20288;-67
2023/04/06 01:48:53;;;;;;;1.88;1.40;;;2.50;99.90;;;;;;4991836;28;20237;-63
2023/04/06 01:51:20;;;;;;;1.20;1.20;;;2.50;99.90;;;;;;4992157;28;20850;-64
2023/04/06 01:53:48;;;;;;;1.20;1.20;;;2.40;99.90;;;;;;5001766;28;20252;-64
2023/04/06 01:56:15;;;;;;;1.27;1.27;;;2.40;99.90;;;;;;4994682;28;20226;-62
2023/04/06 01:58:43;;;;;;;1.20;1.20;;;2.40;99.90;;;;;;4999263;28;20233;-63
2023/04/06 02:01:10;;;;;;;1.40;1.40;;;2.40;99.90;;;;;;4998318;28;20248;-63
2023/04/06 02:03:37;;;;;;;1.10;1.10;;;2.40;99.90;;;;;;4998629;28;20198;-63
2023/04/06 02:06:04;;;;;;;1.10;1.10;;;2.30;99.90;;;;;;5001263;28;20280;-65
2023/04/06 02:08:31;;;;;;;1.30;1.30;;;2.30;99.90;;;;;;5004647;28;20201;-64
2023/04/06 02:10:58;;;;;;;1.17;1.17;;;2.20;99.90;;;;;;5013247;28;20206;-63
2023/04/06 02:13:25;;;;;;;1.35;1.30;;;2.20;99.90;;;;;;5016433;28;20229;-63
2023/04/06 02:15:53;;;;;;;1.30;1.30;;;2.20;99.90;;;;;;5016582;28;20209;-64
2023/04/06 02:18:20;;;;;;;1.30;1.30;;;2.20;99.90;;;;;;5017335;28;20221;-65
2023/04/06 02:20:47;;;;;;;1.50;1.40;;;2.30;99.90;;;;;;5014694;28;20206;-65
2023/04/06 02:23:14;;;;;;;1.30;1.30;;;2.40;99.90;;;;;;5008246;28;20206;-63
2023/04/06 02:25:41;;;;;;;1.10;1.10;;;2.50;99.90;;;;;;5011164;28;20245;-64
2023/04/06 02:28:08;;;;;;;1.25;1.20;;;2.40;99.90;;;;;;5013342;28;20225;-63
2023/04/06 02:30:35;;;;;;;1.30;1.30;;;2.40;99.90;;;;;;5012255;28;20209;-63
2023/04/06 02:33:04;;;;;;;1.27;1.27;;;2.40;99.90;;;;;;5019781;28;20261;-63
2023/04/06 02:35:32;;;;;;;1.30;1.30;;;2.40;99.90;;;;;;5018493;28;20241;-63
2023/04/06 02:37:59;;;;;;;1.30;1.30;;;2.40;99.90;;;;;;5016417;28;20229;-63
2023/04/06 02:40:26;;;;;;;1.40;1.30;;;2.40;99.90;;;;;;5016903;28;20209;-63
2023/04/06 02:42:53;;;;;;;1.30;1.30;;;2.30;99.90;;;;;;5018192;28;20233;-63
2023/04/06 02:45:20;;;;;;;1.20;1.20;;;2.30;99.90;;;;;;5017881;28;20504;-63
2023/04/06 02:47:47;;;;;;;1.73;1.63;;;2.30;99.90;;;;;;5013996;28;20580;-63
2023/04/06 02:50:15;;;;;;;1.40;1.40;;;2.20;99.90;;;;;;5006155;28;20228;-64
2023/04/06 02:52:42;;;;;;;1.42;1.33;;;2.20;99.90;;;;;;5008323;28;20680;-64
2023/04/06 02:55:09;;;;;;;1.05;1.05;;;2.10;99.90;;;;;;5010159;28;20221;-66
2023/04/06 02:57:36;;;;;;;1.30;1.20;;;2.10;99.90;;;;;;5006278;28;20222;-62
2023/04/06 03:00:04;;;;;;;1.48;1.38;;;2.10;99.90;;;;;;5001474;28;20206;-62
2023/04/06 03:02:31;;;;;;;1.10;1.10;;;2.00;99.90;;;;;;5000800;28;20293;-63
2023/04/06 03:04:58;;;;;;;1.00;1.00;;;1.90;99.90;;;;;;5000822;28;20209;-64
2023/04/06 03:07:26;;;;;;;1.13;1.13;;;2.00;99.90;;;;;;5000607;28;20253;-64
2023/04/06 03:09:53;;;;;;;1.20;1.20;;;1.90;99.90;;;;;;4995730;28;20206;-65
2023/04/06 03:12:20;;;;;;;1.40;1.30;;;1.90;99.90;;;;;;4996311;28;20264;-64
2023/04/06 03:14:47;;;;;;;1.00;1.00;;;1.90;99.90;;;;;;4996338;28;20264;-64
2023/04/06 03:17:14;;;;;;;1.20;1.20;;;1.90;99.90;;;;;;4995695;28;20230;-63
2023/04/06 03:19:41;;;;;;;1.20;1.20;;;1.90;99.90;;;;;;4996316;28;20214;-65
2023/04/06 03:22:08;;;;;;;1.60;1.50;;;1.90;99.90;;;;;;4996504;28;20205;-64
2023/04/06 03:24:37;;;;;;;1.27;1.27;;;2.20;99.90;;;;;;4996235;28;20612;-65
2023/04/06 03:27:04;;;;;;;1.20;1.20;;;2.00;99.90;;;;;;4996186;28;20300;-64
2023/04/06 03:29:31;;;;;;;1.27;1.27;;;2.10;99.90;;;;;;4995508;28;20241;-63
2023/04/06 03:31:58;;;;;;;1.40;1.30;;;2.10;99.90;;;;;;4996435;28;20209;-64
2023/04/06 03:34:24;;;;;;;1.10;1.10;;;2.10;99.90;;;;;;4996535;28;20320;-65
2023/04/06 03:36:51;;;;;;;1.10;1.10;;;2.00;99.90;;;;;;4996484;28;20261;-64
2023/04/06 03:39:18;;;;;;;1.27;1.27;;;2.00;99.90;;;;;;4995747;28;20249;-66
2023/04/06 03:41:46;;;;;;;1.15;1.15;;;2.00;99.90;;;;;;4995704;28;20793;-65
2023/04/06 03:44:13;;;;;;;1.27;1.20;;;1.90;99.90;;;;;;4995336;28;20209;-66
2023/04/06 03:46:40;;;;;;;1.30;1.30;;;1.90;99.90;;;;;;4994937;28;20732;-64
2023/04/06 03:49:07;;;;;;;1.33;1.33;;;1.90;99.90;;;;;;4995240;28;20267;-63
2023/04/06 03:51:34;;;;;;;1.35;1.25;;;1.90;99.90;;;;;;4995454;28;20252;-65
2023/04/06 03:54:01;;;;;;;1.50;1.40;;;1.90;99.90;;;;;;4995085;28;20261;-65
2023/04/06 03:56:28;;;;;;;1.20;1.20;;;2.00;99.90;;;;;;4994500;28;20226;-65
2023/04/06 03:58:56;;;;;;;1.57;1.50;;;2.00;99.90;;;;;;4994780;28;20206;-65
2023/04/06 04:01:23;;;;;;;1.50;1.40;;;2.00;99.90;;;;;;4994506;28;20241;-65
2023/04/06 04:03:50;;;;;;;1.50;1.40;;;2.00;99.90;;;;;;4994768;28;20241;-63
2023/04/06 04:06:17;;;;;;;1.20;1.20;;;1.90;99.90;;;;;;4994733;28;20312;-65
2023/04/06 04:08:43;;;;;;;1.40;1.40;;;1.90;99.90;;;;;;4994668;28;20979;-65
2023/04/06 04:11:10;;;;;;;1.52;1.42;;;1.90;99.90;;;;;;4992704;28;20249;-66
2023/04/06 04:13:37;;;;;;;1.20;1.20;;;1.90;99.90;;;;;;4994300;28;20257;-65
2023/04/06 04:16:06;;;;;;;1.20;1.20;;;2.00;99.90;;;;;;4994075;28;20656;-66
2023/04/06 04:18:33;;;;;;;1.45;1.35;;;2.00;99.90;;;;;;4994278;28;20645;-65
2023/04/06 04:21:00;;;;;;;1.30;1.30;;;2.00;99.90;;;;;;4993745;28;20205;-65
2023/04/06 04:23:27;;;;;;;1.53;1.43;;;2.10;99.90;;;;;;4994162;28;20220;-65
2023/04/06 04:25:54;;;;;;;1.55;1.45;;;2.10;99.90;;;;;;4994553;28;20226;-64
2023/04/06 04:28:21;;;;;;;1.35;1.30;;;2.10;99.90;;;;;;4993901;28;20241;-65
2023/04/06 04:30:48;;;;;;;1.50;1.40;;;2.00;99.90;;;;;;4993696;28;20265;-66
2023/04/06 04:33:16;;;;;;;1.20;1.20;;;2.00;99.90;;;;;;4993562;28;20202;-64
2023/04/06 04:35:43;;;;;;;1.65;1.55;;;1.90;99.90;;;;;;4991276;28;20206;-66
2023/04/06 04:38:10;;;;;;;1.60;1.50;;;1.90;99.90;;;;;;4992743;28;20249;-64
2023/04/06 04:40:37;;;;;;;1.38;1.38;;;1.90;99.90;;;;;;4992754;28;20234;-65
2023/04/06 04:43:03;;;;;;;1.50;1.40;;;1.90;99.90;;;;;;4993845;28;20237;-63
2023/04/06 04:45:30;;;;;;;1.40;1.40;;;1.90;99.90;;;;;;4995256;28;20249;-65
2023/04/06 04:47:57;;;;;;;1.70;1.60;;;1.90;99.90;;;;;;4994711;28;20252;-65
2023/04/06 04:50:26;;;;;;;1.58;1.48;;;1.90;99.90;;;;;;4994741;28;20322;-64
2023/04/06 04:52:53;;;;;;;1.50;1.40;;;1.90;99.90;;;;;;4996110;28;20237;-65
2023/04/06 04:55:19;;;;;;;1.50;1.40;;;1.90;99.90;;;;;;5001590;28;20241;-66
2023/04/06 04:57:46;;;;;;;1.27;1.27;;;1.90;99.90;;;;;;5013012;28;20241;-65
2023/04/06 05:00:14;;;;;;;1.23;1.23;;;1.80;99.90;;;;;;5003276;28;20213;-64
2023/04/06 05:02:41;;;;;;;1.70;1.60;;;1.80;99.90;;;;;;4993339;28;20704;-65
2023/04/06 05:05:09;;;;;;;1.85;1.75;;;1.80;99.90;;;;;;4992567;28;20253;-66
2023/04/06 05:07:37;;;;;;;1.70;1.60;;;1.80;99.90;;;;;;4992574;28;20248;-65
2023/04/06 05:10:05;;;;;;;1.50;1.48;;;1.80;99.90;;;;;;4992177;28;20573;-66
2023/04/06 05:12:32;;;;;;;1.65;1.55;;;1.90;99.90;;;;;;4997775;28;20214;-66
2023/04/06 05:14:59;;;;;;;1.20;1.20;;;1.90;99.90;;;;;;4997015;28;20226;-66
2023/04/06 05:17:26;;;;;;;1.83;1.73;;;1.80;99.90;;;;;;4995151;28;20284;-65
2023/04/06 05:19:53;;;;;;;1.60;1.50;;;1.80;99.90;;;;;;4993523;28;20212;-64
2023/04/06 05:22:20;;;;;;;1.70;1.58;;;1.80;99.90;;;;;;4991531;28;20213;-64
2023/04/06 05:24:48;;;;;;;1.43;1.40;;;1.80;99.90;;;;;;4991923;28;20202;-64
2023/04/06 05:27:15;;;;;;;1.83;1.73;;;1.80;99.90;;;;;;4991937;28;20226;-65
2023/04/06 05:29:42;;;;;;;1.50;1.40;;;1.70;99.90;;;;;;4989766;28;20245;-65
2023/04/06 05:32:09;;;;;;;1.60;1.42;;;1.70;99.90;;;;;;4987844;28;20589;-63
2023/04/06 05:34:37;;;;;;;1.48;1.38;;;1.70;99.90;;;;;;4991825;28;20222;-63
2023/04/06 05:37:04;;;;;;;1.70;1.60;;;1.70;99.90;;;;;;4991601;28;20304;-64
2023/04/06 05:39:31;;;;;;;1.60;1.50;;;1.70;99.90;;;;;;4987711;28;20237;-63
2023/04/06 05:41:59;;;;;;;1.50;1.40;;;1.70;99.90;;;;;;4992304;28;20210;-63
2023/04/06 05:44:26;;;;;;;1.30;1.30;;;1.80;99.90;;;;;;4992268;28;20238;-65
2023/04/06 05:46:53;;;;;;;1.30;1.30;;;1.80;99.90;;;;;;4990667;28;20736;-64
2023/04/06 05:49:20;;;;;;;1.63;1.55;;;1.90;99.90;;;;;;4987604;28;20209;-65
2023/04/06 05:51:47;;;;;;;1.58;1.48;;;1.90;99.90;;;;;;4985554;28;20202;-65
2023/04/06 05:54:14;;;;;;;1.23;1.23;;;2.00;99.90;;;;;;4989204;28;20341;-68
2023/04/06 05:56:40;;;;;;;1.73;1.63;;;2.10;99.90;;;;;;4984027;28;20297;-64
2023/04/06 05:59:09;;;;;;;1.65;1.58;;;2.10;99.90;;;;;;4990913;28;20693;-63
2023/04/06 06:01:36;;;;;;;1.60;1.50;;;2.20;99.90;;;;;;4992097;28;20752;-65
2023/04/06 06:04:03;;;;;;;1.75;1.67;;;2.30;99.90;;;;;;4992142;28;20733;-65
2023/04/06 06:06:31;;;;;;;1.60;1.50;;;2.40;99.90;;;;;;4992009;28;20225;-63
2023/04/06 06:08:58;;;;;;;1.45;1.40;;;2.40;99.90;;;;;;4991992;28;20289;-64
2023/04/06 06:11:25;;;;;;;1.40;1.40;;;2.50;99.90;;;;;;4992110;28;20287;-65
2023/04/06 06:13:52;;;;;;;1.40;1.40;;;2.60;99.90;;;;;;4991645;28;20701;-64
2023/04/06 06:16:21;;;;;;;1.70;1.60;;;2.60;99.90;;;;;;4993087;28;20732;-63
2023/04/06 06:18:48;;;;;;;1.55;1.45;;;2.70;99.90;;;;;;4991701;28;20241;-64
2023/04/06 06:21:16;;;;;;;1.58;1.48;;;2.80;99.90;;;;;;4995390;28;20268;-65
2023/04/06 06:23:43;;;;;;;1.58;1.50;;;2.80;99.90;;;;;;4999252;28;20205;-64
2023/04/06 06:26:10;;;;;;;1.60;1.50;;;2.90;99.90;;;;;;4995379;28;20270;-64
2023/04/06 06:28:37;;;;;;;1.80;1.70;;;2.90;99.90;;;;;;4994338;28;20584;-64
2023/04/06 06:31:04;;;;;;;1.80;1.70;;;3.00;99.90;;;;;;4994446;28;20202;-65
2023/04/06 06:33:33;;;;;;;1.90;1.80;;;3.00;99.90;;;;;;4995617;28;20201;-64
2023/04/06 06:36:00;;;;;;;1.60;1.50;;;3.10;99.90;;;;;;5001823;28;20260;-64
2023/04/06 06:38:27;;;;;;;1.60;1.50;;;3.20;99.90;;;;;;4992471;28;20316;-63
2023/04/06 06:40:54;;;;;;;1.43;1.43;;;3.40;99.90;;;;;;4991263;28;20289;-64
2023/04/06 06:43:21;;;;;;;1.37;1.37;;;3.40;99.90;;;;;;4991398;28;20206;-64
2023/04/06 06:45:48;;;;;;;1.40;1.40;;;3.60;99.90;;;;;;4995023;28;20237;-64
2023/04/06 06:48:16;;;;;;;1.70;1.60;;;3.70;99.90;;;;;;4995200;28;20261;-64
2023/04/06 06:50:44;;;;;;;1.50;1.40;;;3.70;99.90;;;;;;4995541;28;20324;-64
2023/04/06 06:53:11;;;;;;;1.40;1.40;;;3.80;99.90;;;;;;5005581;28;20206;-67
2023/04/06 06:55:38;;;;;;;1.60;1.50;;;4.00;99.90;;;;;;5004442;28;20255;-64
2023/04/06 06:58:05;;;;;;;1.58;1.48;;;4.10;99.90;;;;;;4999116;28;20252;-64
2023/04/06 07:00:32;;;;;;;1.67;1.50;;;4.30;99.90;;;;;;4995068;28;20202;-64
2023/04/06 07:02:59;;;;;;;1.30;1.30;;;4.40;99.90;;;;;;4994976;28;20248;-63
2023/04/06 07:05:26;;;;;;;1.60;1.50;;;4.50;99.90;;;;;;4994912;28;20241;-64
2023/04/06 07:07:55;;;;;;;1.50;1.40;;;4.60;99.90;;;;;;4995164;28;20236;-64
2023/04/06 07:10:22;;;;;;;1.40;1.30;;;4.80;99.90;;;;;;4994631;28;20237;-63
2023/04/06 07:12:49;;;;;;;1.40;1.30;;;4.90;99.90;;;;;;4995231;28;20234;-65
2023/04/06 07:15:17;;;;;;;1.37;1.33;;;5.00;99.90;;;;;;4994508;28;20225;-64
2023/04/06 07:17:44;;;;;;;1.40;1.40;;;5.10;99.90;;;;;;4994828;28;20268;-63
2023/04/06 07:20:12;;;;;;;1.58;1.48;;;5.30;99.90;;;;;;4994167;28;20663;-65
2023/04/06 07:22:39;;;;;;;1.67;1.50;;;5.40;99.90;;;;;;4994335;28;20685;-64
2023/04/06 07:25:08;;;;;;;1.30;1.30;;;5.50;99.90;;;;;;4994647;28;20202;-64
2023/04/06 07:27:35;;;;;;;1.20;1.20;;;5.60;99.90;;;;;;4995134;28;20262;-64
2023/04/06 07:30:02;;;;;;;1.00;1.00;;;5.80;99.90;;;;;;4994628;28;20269;-63
2023/04/06 07:32:29;;;;;;;1.20;1.20;;;6.00;99.90;;;;;;4994777;28;20252;-63
2023/04/06 07:34:57;;;;;;;1.30;1.20;;;6.10;99.90;;;;;;4995714;28;20226;-64
2023/04/06 07:37:24;;;;;;;1.00;1.00;;;6.30;99.90;;;;;;4995149;28;20230;-63
2023/04/06 07:39:51;;;;;;;1.30;1.30;;;6.40;99.90;;;;;;4995488;28;20590;-65
2023/04/06 07:42:20;;;;;;;1.23;1.23;;;6.60;99.90;;;;;;4995443;28;20214;-64
2023/04/06 07:44:47;;;;;;;1.17;1.17;;;6.80;99.90;;;;;;4995163;28;20214;-64
2023/04/06 07:47:14;;;;;;;1.10;1.10;;;7.10;99.90;;;;;;4994601;28;20230;-63
2023/04/06 07:49:41;;;;;;;1.20;1.20;;;7.20;99.90;;;;;;4993957;28;20206;-64
2023/04/06 07:52:08;;;;;;;1.27;1.27;;;7.40;99.90;;;;;;4994503;28;20209;-64
2023/04/06 07:54:34;;;;;;;1.10;1.10;;;7.70;99.90;;;;;;4995127;28;20285;-64
2023/04/06 07:57:01;;;;;;;1.00;1.00;;;7.90;99.90;;;;;;4999519;28;20236;-63
2023/04/06 07:59:30;;;;;;;1.10;1.10;;;8.10;99.90;;;;;;5001404;28;20284;-64
2023/04/06 08:01:57;;;;;;;1.00;1.00;;;8.20;99.90;;;;;;5002618;28;20238;-64
2023/04/06 08:04:24;;;;;;;1.50;1.40;;;8.40;99.90;;;;;;5003012;28;20210;-64
2023/04/06 08:06:50;;;;;;;1.20;1.20;;;8.60;99.90;;;;;;5005683;28;20281;-63
2023/04/06 08:09:17;;;;;;;1.00;1.00;;;8.80;99.90;;;;;;4999723;28;20213;-64
2023/04/06 08:11:46;;;;;;;1.10;1.10;;;9.00;99.90;;;;;;4997950;28;20272;-64
2023/04/06 08:14:12;;;;;;;1.60;1.50;;;9.30;99.90;;;;;;4996372;28;20238;-63
2023/04/06 08:16:41;;;;;;;1.70;1.60;;;9.40;99.90;;;;;;4993221;28;20717;-64
2023/04/06 08:19:09;;;;;;;2.45;2.35;;;9.50;99.90;;;;;;4993101;28;20237;-64
2023/04/06 08:21:36;;;;;;;3.58;3.38;;;9.50;99.90;;;;;;4993434;28;20210;-64
2023/04/06 08:24:03;;;;;;;4.18;3.95;;;9.50;99.90;;;;;;4993715;28;20233;-63
2023/04/06 08:26:30;;;;;;;3.70;3.50;;;9.30;99.90;;;;;;4993829;28;20257;-62
2023/04/06 08:28:56;;;;;;;3.22;3.03;;;9.30;99.90;;;;;;4994500;28;20245;-64
2023/04/06 08:31:23;;;;;;;3.22;3.03;;;9.30;99.90;;;;;;4993466;28;20245;-64
2023/04/06 08:33:52;;;;;;;3.20;3.00;;;9.30;99.90;;;;;;4991544;28;20242;-65
2023/04/06 08:36:22;;;;;;;2.60;2.40;;;9.60;99.90;;;;;;4992255;28;20281;-64
2023/04/06 08:38:49;;;;;;;2.80;2.70;;;9.70;99.90;;;;;;5001706;28;20231;-64
2023/04/06 08:41:17;;;;;;;2.85;2.65;;;9.90;99.90;;;;;;4994590;28;20213;-65
2023/04/06 08:43:47;;;;;;;2.00;1.90;;;10.00;99.90;;;;;;5005218;28;20210;-65
2023/04/06 08:46:14;;;;;;;1.70;1.60;;;10.10;99.90;;;;;;5014088;28;20218;-66
2023/04/06 08:48:42;;;;;;;1.90;1.80;;;10.30;99.90;;;;;;5011815;28;20205;-64
2023/04/06 08:51:11;;;;;;;1.85;1.70;;;10.60;99.90;;;;;;5008109;28;20242;-64
2023/04/06 08:53:39;;;;;;;1.77;1.67;;;10.70;99.90;;;;;;5007011;28;20198;-64
2023/04/06 08:56:07;;;;;;;1.87;1.77;;;10.60;99.90;;;;;;4995009;28;20617;-64
2023/04/06 08:58:36;;;;;;;2.15;2.05;;;10.90;99.90;;;;;;4991925;28;20712;-65
2023/04/06 09:01:08;;;;;;;2.00;1.90;;;11.00;99.90;;;;;;5002729;28;20273;-66
2023/04/06 09:03:39;;;;;;;2.13;1.90;;;11.00;99.90;;;;;;5007105;28;20281;-64
2023/04/06 09:06:07;;;;;;;1.80;1.70;;;11.00;99.90;;;;;;5009771;28;20182;-65
2023/04/06 09:08:35;;;;;;;2.03;1.92;;;11.20;99.90;;;;;;5012729;28;20210;-64
2023/04/06 09:11:03;;;;;;;1.77;1.67;;;11.40;99.90;;;;;;5007132;28;20272;-63
2023/04/06 09:13:30;;;;;;;1.60;1.50;;;11.30;99.90;;;;;;4995755;28;20233;-63
2023/04/06 09:16:00;;;;;;;2.08;1.95;;;11.30;99.90;;;;;;4994731;28;20221;-64
2023/04/06 09:18:31;;;;;;;1.60;1.50;;;11.40;99.90;;;;;;4994179;28;20209;-64
2023/04/06 09:21:00;;;;;;;2.17;1.90;;;11.60;99.90;;;;;;4992976;28;20305;-63
2023/04/06 09:23:27;;;;;;;1.63;1.52;;;11.80;99.90;;;;;;4992628;28;20298;-64
2023/04/06 09:26:06;;;;;;;1.70;1.60;;;11.60;99.90;;;;;;4994298;28;20624;-64
2023/04/06 09:28:43;;;;;;;1.40;1.40;;;11.70;99.90;;;;;;4996046;28;20218;-64
2023/04/06 09:31:10;;;;;;;1.42;1.40;;;11.80;99.90;;;;;;4993382;28;20241;-63
2023/04/06 09:33:39;;;;;;;1.52;1.50;;;11.80;99.90;;;;;;4993765;28;20206;-64
2023/04/06 09:36:09;;;;;;;1.40;1.27;;;11.80;99.90;;;;;;4993342;28;20229;-63
2023/04/06 09:38:37;;;;;;;1.40;1.30;;;11.90;99.90;;;;;;4993076;28;20677;-63
2023/04/06 09:41:05;;;;;;;1.63;1.53;;;12.00;99.90;;;;;;4992225;28;20638;-64
2023/04/06 09:43:32;;;;;;;1.35;1.35;;;12.00;99.90;;;;;;4992369;28;20202;-65
2023/04/06 09:46:02;;;;;;;1.50;1.40;;;12.10;99.90;;;;;;4993045;28;20253;-64
2023/04/06 09:48:35;;;;;;;1.20;1.20;;;12.20;99.90;;;;;;4992159;28;20218;-64
2023/04/06 09:51:05;;;;;;;1.70;1.50;;;12.50;99.90;;;;;;4992626;28;20194;-63
2023/04/06 09:53:37;;;;;;;1.40;1.40;;;12.60;99.90;;;;;;4992625;28;20233;-64
2023/04/06 09:56:12;;;;;;;1.27;1.27;;;12.60;99.90;;;;;;4992612;28;20357;-63
2023/04/06 09:58:43;;;;;;;1.42;1.38;;;12.80;99.90;;;;;;4992299;28;20241;-65
2023/04/06 10:01:13;;;;;;;1.50;1.40;;;13.00;99.90;;;;;;4992110;28;20293;-65
2023/04/06 10:03:48;;;;;;;1.48;1.38;;;13.10;99.90;;;;;;4992035;28;20249;-64
2023/04/06 10:06:17;;;;;;;1.30;1.30;;;13.00;99.90;;;;;;4992426;28;20264;-65
2023/04/06 10:08:48;;;;;;;1.40;1.30;;;13.10;99.90;;;;;;4992253;28;20241;-64
2023/04/06 10:11:17;;;;;;;1.10;1.10;;;13.40;99.90;;;;;;4991656;28;20234;-63
2023/04/06 10:13:44;;;;;;;1.55;1.45;;;13.50;99.90;;;;;;4991935;28;20669;-64
2023/04/06 10:16:13;;;;;;;1.30;1.30;;;13.50;99.90;;;;;;4990773;28;20308;-65
2023/04/06 10:18:43;;;;;;;1.40;1.30;;;13.60;99.90;;;;;;4992894;28;20245;-64
2023/04/06 10:21:15;;;;;;;1.30;1.30;;;13.90;99.90;;;;;;4994379;28;20248;-63
2023/04/06 10:23:48;;;;;;;1.63;1.20;;;14.00;99.90;;;;;;4994827;28;20260;-63
2023/04/06 10:26:20;;;;;;;1.30;1.30;;;14.10;99.90;;;;;;4994762;28;20222;-63
2023/04/06 10:28:48;;;;;;;1.25;1.20;;;14.10;99.90;;;;;;4997498;28;20202;-67
2023/04/06 10:31:15;;;;;;;1.10;1.10;;;14.20;99.90;;;;;;5010295;28;20610;-63
2023/04/06 10:33:42;;;;;;;1.10;1.10;;;14.40;99.90;;;;;;4994361;28;20206;-64
2023/04/06 10:36:13;;;;;;;1.10;1.10;;;14.60;99.60;;;;;;4994368;28;20272;-63
2023/04/06 10:38:41;;;;;;;0.90;0.90;;;14.70;98.00;;;;;;4994213;28;20220;-64
2023/04/06 10:41:09;;;;;;;1.00;1.00;;;14.80;96.90;;;;;;4993644;28;20693;-64
2023/04/06 10:43:38;;;;;;;1.10;1.10;;;15.00;97.80;;;;;;4993517;28;20260;-63
2023/04/06 10:46:07;;;;;;;1.10;1.10;;;15.20;97.90;;;;;;4994568;28;20210;-64
2023/04/06 10:48:41;;;;;;;0.82;0.82;;;15.30;97.10;;;;;;4995184;28;20241;-62
2023/04/06 10:51:12;;;;;;;0.90;0.90;;;15.50;95.10;;;;;;4994691;28;20210;-62
2023/04/06 10:53:42;;;;;;;1.17;0.90;;;15.60;92.50;;;;;;4995509;28;20202;-65
2023/04/06 10:56:12;;;;;;;0.98;0.98;;;15.60;94.20;;;;;;4994945;28;20308;-64
2023/04/06 10:58:45;;;;;;;1.25;1.00;;;15.70;93.30;;;;;;4995014;28;20202;-64
2023/04/06 11:01:12;;;;;;;0.93;0.93;;;15.80;93.00;;;;;;4994916;28;20213;-64
2023/04/06 11:03:45;;;;;;;1.10;1.10;;;15.80;92.00;;;;;;4995279;28;20233;-63
2023/04/06 11:06:18;;;;;;;0.93;0.93;;;15.90;90.10;;;;;;4994521;28;20788;-64
2023/04/06 11:08:45;;;;;;;1.00;1.00;;;15.90;90.30;;;;;;4995259;28;20210;-64
2023/04/06 11:11:15;;;;;;;1.10;1.10;;;16.00;91.00;;;;;;4994158;28;20245;-64
2023/04/06 11:13:45;;;;;;;1.10;1.10;;;16.00;90.90;;;;;;4994972;28;20220;-63
2023/04/06 11:16:16;;;;;;;1.10;1.10;;;16.20;91.00;;;;;;4994447;28;20261;-62
2023/04/06 11:18:55;;;;;;;1.38;1.30;;;16.00;90.40;;;;;;4994834;28;20623;-64
2023/04/06 11:21:34;;;;;;;1.10;1.10;;;15.90;91.00;;;;;;4994686;28;20241;-63
2023/04/06 11:24:08;;;;;;;1.40;1.30;;;15.80;91.10;;;;;;4996763;28;20239;-69
2023/04/06 11:26:39;;;;;;;1.13;1.13;;;15.60;90.70;;;;;;5000630;28;20221;-64
2023/04/06 11:29:07;;;;;;;1.20;1.20;;;15.50;91.00;;;;;;5002042;28;20225;-63
2023/04/06 11:31:40;;;;;;;1.17;1.17;;;15.40;89.60;;;;;;4995430;28;20206;-63
2023/04/06 11:34:11;;;;;;;1.27;1.27;;;15.00;85.50;;;;;;4994561;28;20264;-64
2023/04/06 11:36:41;;;;;;;1.10;1.10;;;15.00;87.10;;;;;;4994372;28;20328;-63
2023/04/06 11:39:08;;;;;;;1.20;1.20;;;15.10;88.00;;;;;;4994632;28;20277;-64
2023/04/06 11:41:35;;;;;;;1.50;1.40;;;15.00;87.10;;;;;;4993784;28;20639;-63
2023/04/06 11:44:02;;;;;;;1.33;1.33;;;15.30;89.00;;;;;;4993902;28;20224;-64
2023/04/06 11:46:31;;;;;;;1.55;1.45;;;15.40;86.30;;;;;;4994909;28;20222;-64
2023/04/06 11:49:00;;;;;;;1.60;1.50;;;15.40;86.50;;;;;;4994449;28;20221;-63
2023/04/06 11:51:27;;;;;;;1.45;1.40;;;15.50;86.70;;;;;;4993783;28;20300;-63
2023/04/06 11:53:54;;;;;;;1.40;1.40;;;15.60;87.70;;;;;;4993676;28;20579;-63
2023/04/06 11:56:26;;;;;;;1.30;1.30;;;15.70;87.40;;;;;;4993410;28;20257;-62
2023/04/06 11:58:53;;;;;;;1.30;1.30;;;15.70;83.90;;;;;;4993755;28;20253;-63
2023/04/06 12:01:20;;;;;;;1.42;1.33;;;15.40;84.70;;;;;;4993289;28;20689;-63
2023/04/06 12:03:49;;;;;;;1.60;1.50;;;15.50;86.60;;;;;;4993770;28;20288;-64
2023/04/06 12:06:16;;;;;;;1.30;1.30;;;15.50;84.50;;;;;;4993981;28;20304;-63
2023/04/06 12:08:43;;;;;;;1.70;1.60;;;15.60;88.30;;;;;;4994005;28;20206;-64
2023/04/06 12:11:10;;;;;;;1.60;1.50;;;15.60;83.70;;;;;;4993048;28;20249;-64
2023/04/06 12:13:37;;;;;;;1.70;1.60;;;15.60;84.60;;;;;;4993760;28;20238;-63
2023/04/06 12:16:03;;;;;;;1.33;1.33;;;15.70;85.90;;;;;;4993814;28;20269;-64
2023/04/06 12:18:31;;;;;;;1.33;1.30;;;15.80;85.70;;;;;;4993771;28;20309;-62
2023/04/06 12:20:59;;;;;;;1.33;1.30;;;15.80;86.00;;;;;;4993176;28;20214;-63
2023/04/06 12:23:26;;;;;;;1.60;1.50;;;15.80;85.30;;;;;;4993573;28;20237;-64
2023/04/06 12:25:54;;;;;;;1.75;1.65;;;15.70;84.60;;;;;;4993820;28;20244;-64
2023/04/06 12:28:22;;;;;;;1.70;1.60;;;15.50;84.30;;;;;;4993455;28;20212;-62
2023/04/06 12:30:50;;;;;;;1.50;1.50;;;15.40;84.70;;;;;;4993140;28;20213;-64
2023/04/06 12:33:17;;;;;;;1.50;1.50;;;15.30;86.90;;;;;;4996532;28;20265;-64
2023/04/06 12:35:44;;;;;;;1.50;1.40;;;15.40;89.60;;;;;;4995947;28;20233;-64
2023/04/06 12:38:12;;;;;;;1.30;1.30;;;15.70;90.50;;;;;;4998188;28;20233;-63
2023/04/06 12:40:40;;;;;;;1.60;1.50;;;15.90;90.40;;;;;;4993677;28;20202;-63
2023/04/06 12:43:07;;;;;;;1.80;1.70;;;15.90;90.20;;;;;;4993845;28;20212;-63
2023/04/06 12:45:34;;;;;;;1.70;1.60;;;15.90;90.10;;;;;;4993178;28;20246;-63
2023/04/06 12:48:01;;;;;;;1.70;1.60;;;15.80;90.50;;;;;;4993525;28;20229;-63
2023/04/06 12:50:28;;;;;;;1.40;1.40;;;15.70;89.40;;;;;;4999014;28;20241;-64
2023/04/06 12:52:55;;;;;;;1.38;1.33;;;15.70;87.50;;;;;;5002969;28;20240;-65
2023/04/06 12:55:23;;;;;;;1.23;1.23;;;15.50;85.80;;;;;;5004615;28;20217;-64